Nearby METAR Reports


Data Updates Approximately Every Four Hours

METAR is the international standard code format for hourly surface weather observations which is analogous to the SA coding currently used in the US. The acronym roughly translates from French as Aviation Routine Weather Report. SPECI is merely the code name given to METAR formatted products which are issued on a special non-routine basis as dictated by changing meteorological conditions. The SPECI acronym roughly translates as Aviation Selected Special Weather Report.

KSLH - Cheboygan, Michigan, USA
Distance from station: W 9mi, 14km
Updated: 04/29/2017 5:14am
Mostly cloudy
Mostly cloudy
 Wind from NW
Wind: NW 12 mph , 19 km/h
Temperature: 34°F , 1°C
Wind Chill: 25°F , -4°C
Dew Point: 27°F , -3°C
Humidity: 75%
Barometer: 30.12 inHg , 1020 hPa
Clouds: Mostly cloudy
Visibility: 10 miles , 16 km
Cloud details: Partly cloudy 2900 ft
Mostly cloudy 3900 ft
2017/04/29 09:14 KSLH 290914Z AUTO 31010KT 10SM SCT029 BKN039 01/M03 A3012 RMK AO2 T00101037
KMCD - Mackinac Island, Michigan, USA
Distance from station: NW 19mi, 31km
Updated: 04/29/2017 5:16am
Overcast
Overcast
 Wind from NW
Wind: NW 7 mph , 11 km/h
Temperature: 34°F , 1°C
Wind Chill: 28°F , -2°C
Dew Point: 25°F , -4°C
Humidity: 70%
Barometer: 30.12 inHg , 1020 hPa
Clouds: Overcast
Visibility: 10 miles , 16 km
Cloud details: Overcast 3700 ft
2017/04/29 09:16 KMCD 290916Z AUTO 31006KT 10SM OVC037 01/M04 A3012 RMK AO2 T00111037
 
KPLN - Pellston, Michigan, USA
Distance from station: WSW 24mi, 38km
Updated: 04/29/2017 4:54am

 
Barometer: 30.13 inHg , 1020.3 hPa
2017/04/29 08:54 KPLN 290854Z AUTO A3013 RMK AO2 SLPNO PWINO FZRANO $
KPZQ - Rogers City, Michigan, USA
Distance from station: SE 31mi, 50km
Updated: 04/29/2017 5:15am
Overcast
Overcast
 Wind from NW
Wind: NW 14 mph , 22 km/h, Gust: 23 mph , 37 km/h
Temperature: 37°F , 3°C
Wind Chill: 28°F , -2°C
Dew Point: 27°F , -3°C
Humidity: 65%
Barometer: 30.11 inHg , 1019.6 hPa
Clouds: Overcast
Visibility: 10 miles , 16 km
Cloud details: Partly cloudy 2800 ft
Overcast 3700 ft
2017/04/29 09:15 KPZQ 290915Z AUTO 32012G20KT 10SM SCT028 OVC037 03/M03 A3011 RMK AO2 T00251028
 
KMGN - Harbor Springs, Michigan, USA
Distance from station: WSW 32mi, 52km
Updated: 04/29/2017 5:14am
Clear
Clear
 Wind from N
Wind: N 5 mph , 7 km/h
Temperature: 34°F , 1°C
Wind Chill: 29°F , -2°C
Dew Point: 27°F , -3°C
Humidity: 75%
Barometer: 30.13 inHg , 1020.3 hPa
Clouds: Clear
Visibility: 10 miles , 16 km
2017/04/29 09:14 KMGN 290914Z AUTO 35004KT 10SM CLR 01/M03 A3013 RMK AO2 T00101040
KDRM - Drummond Is, Michigan, USA
Distance from station: NE 36mi, 59km
Updated: 04/29/2017 5:15am
Overcast
Overcast
 Wind from NW
Wind: NW 6 mph , 9 km/h, Gust: 20 mph , 31 km/h
Temperature: 36°F , 2°C
Wind Chill: 31°F , -1°C
Dew Point: 23°F , -5°C
Humidity: 60%
Barometer: 30.10 inHg , 1019.3 hPa
Clouds: Overcast
Visibility: 10 miles , 16 km
Cloud details: Overcast 3400 ft
2017/04/29 09:15 KDRM 290915Z AUTO 31005G17KT 10SM OVC034 02/M05 A3010 RMK AO2 T00161049
 
KCIU - Chippewa Intl, Michigan, USA
Distance from station: N 41mi, 66km
Updated: 04/29/2017 4:56am
Overcast
Overcast
 Wind from NW
Wind: NW 12 mph , 19 km/h, Gust: 21 mph , 33 km/h
Temperature: 36°F , 2°C
Wind Chill: 28°F , -2°C
Dew Point: 25°F , -4°C
Humidity: 65%
Barometer: 30.08 inHg , 1018.6 hPa
Clouds: Overcast
Visibility: 10 miles , 16 km
Cloud details: Overcast 3400 ft
2017/04/29 08:56 KCIU 290856Z AUTO 32010G18KT 10SM OVC034 02/M04 A3008 RMK AO2 SLP218 T00171044 50013 FZRANO
KGLR - Gaylord, Michigan, USA
Distance from station: SSW 48mi, 77km
Updated: 04/29/2017 4:53am
Overcast
Overcast
 Wind from varies
Wind: varies 6 mph , 9 km/h
Temperature: 37°F , 3°C
Wind Chill: 32°F , 0°C
Dew Point: 27°F , -3°C
Humidity: 65%
Barometer: 30.09 inHg , 1019 hPa
Clouds: Overcast
Visibility: 10 miles , 16 km
Cloud details: Mostly cloudy 2200 ft
Overcast 9000 ft
2017/04/29 08:53 KGLR 290853Z AUTO VRB05KT 10SM BKN022 OVC090 03/M03 A3009 RMK AO2 SLP197 T00281028 53016
 
KCVX - Charlevoix, Michigan, USA
Distance from station: WSW 52mi, 83km
Updated: 04/29/2017 5:14am
Clear
Clear
 Wind from N
Wind: N 13 mph , 20 km/h, Gust: 16 mph , 26 km/h
Temperature: 36°F , 2°C
Wind Chill: 27°F , -3°C
Dew Point: 27°F , -3°C
Humidity: 70%
Barometer: 30.15 inHg , 1021 hPa
Clouds: Clear
Visibility: 10 miles , 16 km
2017/04/29 09:14 KCVX 290914Z AUTO 35011G14KT 10SM CLR 02/M03 A3015 RMK AO2 T00201027
KANJ - Sault Ste Marie, Michigan, USA
Distance from station: N 56mi, 89km
Updated: 04/29/2017 4:55am
Overcast
Overcast
 Wind from NW
Wind: NW 14 mph , 22 km/h, Gust: 22 mph , 35 km/h
Temperature: 37°F , 3°C
Wind Chill: 28°F , -2°C
Dew Point: 27°F , -3°C
Humidity: 65%
Barometer: 30.07 inHg , 1018.3 hPa
Clouds: Overcast
Visibility: 10 miles , 16 km
Cloud details: Overcast 3300 ft
2017/04/29 08:55 KANJ 290855Z AUTO 31012G19KT 10SM OVC033 03/M03 A3007 RMK AO2 SLP186 T00281033 50010
 
KAPN - Alpena, Michigan, USA
Distance from station: SE 56mi, 89km
Updated: 04/29/2017 4:54am
Overcast
Overcast
 Wind from NW
Wind: NW 8 mph , 13 km/h
Temperature: 39°F , 4°C
Wind Chill: 33°F , 1°C
Dew Point: 30°F , -1°C
Humidity: 70%
Barometer: 30.10 inHg , 1019.3 hPa
Clouds: Overcast
Visibility: 10 miles , 16 km
Cloud details: Few Clouds 3000 ft
Mostly cloudy 7500 ft
Overcast 9500 ft
2017/04/29 08:54 KAPN 290854Z AUTO 32007KT 10SM FEW030 BKN075 OVC095 04/M01 A3010 RMK AO2 SLP197 T00391011 53019
CYAM - Sault Ste Marie, Ontario, Canada
Distance from station: N 56mi, 90km
Updated: 04/29/2017 5:00am
Overcast
Overcast
 Wind from NW
Wind: NW 20 mph , 31 km/h, Gust: 26 mph , 43 km/h
Temperature: 36°F , 2°C
Wind Chill: 25°F , -4°C
Dew Point: 27°F , -3°C
Humidity: 70%
Barometer: 30.08 inHg , 1018.6 hPa
Clouds: Overcast
Visibility: 15 miles , 24 km
Cloud details: Few Clouds 2000 ft
Overcast 3100 ft
2017/04/29 09:00 CYAM 290900Z 31017G23KT 15SM FEW020 OVC031 02/M03 A3008 RMK CF1SC8 CF TR SLP195
 
KSJX - Beaver Island, Michigan, USA
Distance from station: W 60mi, 96km
Updated: 04/29/2017 5:14am
Clear
Clear
 Wind from NNW
Wind: NNW 3 mph , 6 km/h
Temperature: 34°F , 1°C
Dew Point: 27°F , -3°C
Humidity: 75%
Barometer: 30.14 inHg , 1020.7 hPa
Clouds: Clear
Visibility: 10 miles , 16 km
2017/04/29 09:14 KSJX 290914Z AUTO 34003KT 10SM CLR 01/M03 A3014 RMK AO2 T00131031
KACB - Bellaire, Michigan, USA
Distance from station: SW 63mi, 102km
Updated: 04/29/2017 5:15am
Overcast
Overcast
 Wind from N
Wind: N 6 mph , 9 km/h
Temperature: 37°F , 3°C
Wind Chill: 32°F , 0°C
Dew Point: 28°F , -2°C
Humidity: 70%
Barometer: 30.13 inHg , 1020.3 hPa
Clouds: Overcast
Visibility: 10 miles , 16 km
Cloud details: Partly cloudy 2700 ft
Overcast 3500 ft
2017/04/29 09:15 KACB 290915Z AUTO 35005KT 10SM SCT027 OVC035 03/M02 A3013 RMK AO2 T00251022
 
CWNL - Great Duck Island, Ontario, Canada
Distance from station: E 66mi, 106km
Updated: 04/29/2017 4:00am
NOT Current

 Wind from NW
Wind: NW 9 mph , 15 km/h
Temperature: 37°F , 3°C
Wind Chill: 30°F , -1°C
Dew Point: 34°F , 1°C
Humidity: 87%
2017/04/29 08:00 CWNL 290800Z AUTO 32008KT 03/01 RMK AO1 SLP177 T00330005 55000
KERY - Newberry, Michigan, USA
Distance from station: NW 69mi, 112km
Updated: 04/29/2017 5:14am
Overcast
Overcast
 Wind from NW
Wind: NW 7 mph , 11 km/h
Temperature: 32°F , 0°C
Wind Chill: 25°F , -4°C
Dew Point: 27°F , -3°C
Humidity: 80%
Barometer: 30.10 inHg , 1019.3 hPa
Clouds: Overcast
Visibility: 10 miles , 16 km
Cloud details: Overcast 3200 ft
2017/04/29 09:14 KERY 290914Z AUTO 32006KT 10SM OVC032 00/M03 A3010 RMK AO2 T00001026
 
KGOV - Grayling Af, Michigan, USA
Distance from station: SSW 70mi, 113km
Updated: 04/29/2017 5:14am
Partly cloudy
Partly cloudy
 Wind from N
Wind: N 5 mph , 7 km/h
Temperature: 34°F , 1°C
Wind Chill: 29°F , -2°C
Dew Point: 28°F , -2°C
Humidity: 81%
Barometer: 30.10 inHg , 1019.3 hPa
Clouds: Partly cloudy
Visibility: 10 miles , 16 km
Cloud details: Partly cloudy 6500 ft
Partly cloudy 9000 ft
2017/04/29 09:14 KGOV 290914Z AUTO 35004KT 10SM SCT065 SCT090 01/M02 A3010 RMK AO2 T00121022